createdAt,value
2022-10-22T00:17:24.753Z,12.7
2022-10-22T00:37:17.481Z,12.8
2022-10-22T00:56:39.246Z,12.96
2022-10-22T01:18:44.987Z,13.12
2022-10-22T01:37:54.302Z,13.18
2022-10-22T01:58:38.952Z,13.21
2022-10-22T02:17:22.926Z,13.21
2022-10-22T02:38:13.109Z,13.17
2022-10-22T02:58:21.059Z,13.1
2022-10-22T03:18:01.640Z,13.09
2022-10-22T03:38:34.084Z,13.11
2022-10-22T03:58:36.076Z,13.11
2022-10-22T04:18:49.518Z,13.08
2022-10-22T04:37:43.419Z,13.03
2022-10-22T04:58:04.153Z,12.96
2022-10-22T05:18:19.082Z,12.94
2022-10-22T05:38:18.620Z,12.88
2022-10-22T05:58:42.082Z,12.81
2022-10-22T06:18:08.889Z,12.8
2022-10-22T06:38:46.568Z,12.81
2022-10-22T06:58:28.901Z,12.83
2022-10-22T07:18:05.409Z,12.87
2022-10-22T07:38:20.529Z,13.03
2022-10-22T07:58:10.911Z,13.27
2022-10-22T08:19:04.429Z,13.52
2022-10-22T08:38:25.548Z,13.27
2022-10-22T08:58:47.703Z,13.26
2022-10-22T09:17:59.756Z,13.51
2022-10-22T09:37:22.066Z,13.77
2022-10-22T09:56:28.064Z,13.78
2022-10-22T10:17:50.571Z,13.63
2022-10-22T10:38:33.618Z,13.86
2022-10-22T10:57:21.875Z,14.1
2022-10-22T11:18:12.982Z,13.98
2022-10-22T11:38:03.516Z,14
2022-10-22T12:18:16.400Z,15.11
2022-10-22T12:58:32.350Z,16.68
2022-10-22T13:18:06.205Z,16.5
2022-10-22T13:38:08.209Z,17.87
2022-10-22T13:57:48.047Z,17.89
2022-10-22T14:18:01.021Z,16.52
2022-10-22T14:37:48.956Z,16.19
2022-10-22T14:58:46.026Z,16.04
2022-10-22T15:18:45.090Z,16.05
2022-10-22T15:38:08.397Z,16.04
2022-10-22T15:58:19.245Z,15.81
2022-10-22T16:18:29.407Z,15.43
2022-10-22T16:38:14.005Z,14.74
2022-10-22T16:57:45.313Z,14.17
2022-10-22T17:17:24.654Z,13.6
2022-10-22T17:38:36.481Z,13.42
2022-10-22T17:57:13.664Z,13.32
2022-10-22T18:18:07.204Z,13.06
2022-10-22T18:37:39.995Z,12.57
2022-10-22T18:58:14.892Z,12.21
2022-10-22T19:17:00.718Z,11.79
2022-10-22T19:38:44.725Z,11.45
2022-10-22T19:58:42.372Z,11.11
2022-10-22T20:18:31.757Z,10.89
2022-10-22T20:38:08.529Z,10.71
2022-10-22T20:58:32.253Z,10.46
2022-10-22T21:18:01.268Z,10.23
2022-10-22T21:37:47.161Z,10.02
2022-10-22T21:57:50.416Z,9.82
2022-10-22T22:17:02.017Z,9.68
2022-10-22T22:38:31.308Z,9.63
2022-10-22T22:58:02.104Z,9.68
2022-10-22T23:38:10.411Z,9.54
2022-10-22T23:57:24.855Z,9.41
